Time;durP1;ratioP1;P1;durP2;ratioP2;P2;SDS_P1;SDS_P2;PMS_P1;PMS_P2;Temp;Humidity;BMP_temperature;BMP_pressure;BME280_temperature;BME280_humidity;BME280_pressure;Samples;Min_cycle;Max_cycle;Signal;HPM_P1;HPM_P2
2021/11/20 00:00:44;;;;;;;0.20;0.20;;;;;;;9.94;100.00;101683.13;5063504;28;20055;-81
2021/11/20 00:03:13;;;;;;;0.30;0.30;;;;;;;9.91;100.00;101686.34;5063546;28;20053;-82
2021/11/20 00:05:51;;;;;;;0.30;0.30;;;;;;;9.97;100.00;101685.31;5070771;28;20432;-80
2021/11/20 00:08:22;;;;;;;0.20;0.20;;;;;;;9.85;100.00;101688.97;5063767;28;20428;-82
2021/11/20 00:11:01;;;;;;;0.20;0.20;;;;;;;9.94;100.00;101675.78;5064233;28;20545;-81
2021/11/20 00:13:35;;;;;;;0.20;0.20;;;;;;;9.88;100.00;101684.94;5067094;28;20036;-81
2021/11/20 00:16:07;;;;;;;0.30;0.30;;;;;;;9.82;100.00;101675.91;5068133;28;21007;-81
2021/11/20 00:18:42;;;;;;;0.20;0.20;;;;;;;9.76;100.00;101671.44;5066794;28;20040;-82
2021/11/20 00:21:17;;;;;;;0.30;0.30;;;;;;;9.83;100.00;101690.31;5068757;28;20049;-82
2021/11/20 00:23:50;;;;;;;0.20;0.20;;;;;;;9.78;100.00;101672.03;5065443;28;20052;-81
2021/11/20 00:26:22;;;;;;;0.30;0.30;;;;;;;9.82;100.00;101678.63;5066120;28;20055;-81
2021/11/20 00:29:18;;;;;;;0.22;0.22;;;;;;;9.77;100.00;101664.13;5059079;28;20041;-81
2021/11/20 00:31:57;;;;;;;0.30;0.30;;;;;;;9.69;100.00;101659.94;5065379;28;20424;-81
2021/11/20 00:34:28;;;;;;;0.20;0.20;;;;;;;9.80;100.00;101663.63;5066611;28;20424;-81
2021/11/20 00:37:04;;;;;;;0.30;0.30;;;;;;;9.81;100.00;101663.38;5068222;28;20036;-81
2021/11/20 00:39:36;;;;;;;0.20;0.20;;;;;;;9.76;100.00;101673.34;5069012;28;20058;-81
2021/11/20 00:42:06;;;;;;;0.20;0.20;;;;;;;9.73;100.00;101665.69;5061488;28;20044;-81
2021/11/20 00:44:35;;;;;;;0.30;0.30;;;;;;;9.82;100.00;101677.81;5063352;28;20480;-81
2021/11/20 00:47:05;;;;;;;0.20;0.20;;;;;;;9.76;100.00;101682.31;5065491;28;20056;-81
2021/11/20 00:49:37;;;;;;;0.30;0.30;;;;;;;9.77;100.00;101683.16;5063356;28;20044;-81
2021/11/20 00:52:08;;;;;;;0.22;0.22;;;;;;;9.80;100.00;101678.03;5065109;28;20087;-80
2021/11/20 00:54:39;;;;;;;0.20;0.20;;;;;;;9.82;100.00;101670.47;5062394;28;20515;-81
2021/11/20 00:57:14;;;;;;;0.20;0.20;;;;;;;9.67;100.00;101664.81;5061134;28;20055;-81
2021/11/20 00:59:44;;;;;;;0.30;0.30;;;;;;;9.68;100.00;101670.00;5066998;28;20402;-82
2021/11/20 01:02:13;;;;;;;0.20;0.20;;;;;;;9.76;100.00;101681.50;5068261;28;20041;-81
2021/11/20 01:04:42;;;;;;;0.30;0.30;;;;;;;9.79;100.00;101684.56;5059673;28;20036;-81
2021/11/20 01:07:11;;;;;;;0.20;0.20;;;;;;;9.69;100.00;101668.94;5065245;28;20049;-80
2021/11/20 01:09:47;;;;;;;0.20;0.20;;;;;;;9.75;100.00;101688.84;5065376;28;20047;-80
2021/11/20 01:12:22;;;;;;;0.20;0.20;;;;;;;9.70;100.00;101680.59;5068626;28;20053;-81
2021/11/20 01:14:52;;;;;;;0.20;0.20;;;;;;;9.75;100.00;101680.69;5066158;28;20053;-81
2021/11/20 01:17:31;;;;;;;0.20;0.20;;;;;;;9.73;100.00;101690.16;5062244;28;20075;-81
2021/11/20 01:20:00;;;;;;;0.20;0.20;;;;;;;9.73;100.00;101687.44;5069466;28;20531;-81
2021/11/20 01:22:54;;;;;;;0.20;0.20;;;;;;;9.77;100.00;101685.88;5065738;28;20044;-81
2021/11/20 01:25:31;;;;;;;0.20;0.20;;;;;;;9.78;100.00;101676.66;5069314;28;20044;-80
2021/11/20 01:28:33;;;;;;;0.20;0.20;;;;;;;9.78;100.00;101693.78;5074203;28;20389;-81
2021/11/20 01:31:11;;;;;;;0.20;0.20;;;;;;;9.75;100.00;101682.56;5071880;28;20389;-82
2021/11/20 01:33:44;;;;;;;0.20;0.20;;;;;;;9.76;100.00;101678.78;5071245;28;20064;-81
2021/11/20 01:36:16;;;;;;;0.20;0.20;;;;;;;9.78;100.00;101677.47;5071947;28;20338;-82
2021/11/20 01:38:47;;;;;;;0.20;0.20;;;;;;;9.77;100.00;101670.38;5068311;28;20060;-81
2021/11/20 01:41:30;;;;;;;0.30;0.30;;;;;;;9.74;100.00;101676.31;5066793;28;20044;-82
2021/11/20 01:44:16;;;;;;;0.20;0.20;;;;;;;9.67;100.00;101670.25;5068981;28;20057;-81
2021/11/20 01:46:50;;;;;;;0.25;0.25;;;;;;;9.66;100.00;101669.41;5069175;28;20508;-81
2021/11/20 01:49:23;;;;;;;0.30;0.30;;;;;;;9.64;100.00;101665.28;5084492;28;20053;-82
2021/11/20 01:51:54;;;;;;;0.20;0.20;;;;;;;9.58;100.00;101658.94;5067795;28;20048;-81
2021/11/20 01:54:39;;;;;;;0.20;0.20;;;;;;;9.59;100.00;101666.03;5072542;28;20360;-81
2021/11/20 01:57:34;;;;;;;0.20;0.20;;;;;;;9.52;100.00;101658.06;5071531;28;20047;-81
2021/11/20 02:00:12;;;;;;;0.20;0.20;;;;;;;9.64;100.00;101677.00;5067686;28;20036;-81
2021/11/20 02:02:53;;;;;;;0.20;0.20;;;;;;;9.57;100.00;101675.50;5068898;28;20043;-81
2021/11/20 02:05:42;;;;;;;0.20;0.20;;;;;;;9.50;100.00;101667.53;5072649;28;20049;-81
2021/11/20 02:08:24;;;;;;;0.25;0.25;;;;;;;9.60;100.00;101675.00;5069053;28;20393;-81
2021/11/20 02:11:05;;;;;;;0.20;0.20;;;;;;;9.62;100.00;101673.69;5072052;28;20044;-81
2021/11/20 02:13:36;;;;;;;0.20;0.20;;;;;;;9.41;100.00;101656.25;5063334;28;20417;-81
2021/11/20 02:16:11;;;;;;;0.30;0.30;;;;;;;9.49;100.00;101672.16;5067110;28;20060;-81
2021/11/20 02:18:44;;;;;;;0.20;0.20;;;;;;;9.55;100.00;101680.38;5068843;28;20045;-81
2021/11/20 02:21:21;;;;;;;0.30;0.30;;;;;;;9.57;100.00;101683.66;5071500;28;20408;-81
2021/11/20 02:23:54;;;;;;;0.20;0.20;;;;;;;9.59;100.00;101676.09;5067933;28;20048;-81
2021/11/20 02:26:32;;;;;;;0.20;0.20;;;;;;;9.52;100.00;101677.06;5069612;28;20060;-81
2021/11/20 02:29:06;;;;;;;0.20;0.20;;;;;;;9.44;100.00;101663.91;5065690;28;20044;-81
2021/11/20 02:32:00;;;;;;;0.20;0.20;;;;;;;9.39;100.00;101660.28;5071938;28;20055;-81
2021/11/20 02:34:43;;;;;;;0.20;0.20;;;;;;;9.43;100.00;101661.44;5066824;28;20045;-81
2021/11/20 02:37:18;;;;;;;0.20;0.20;;;;;;;9.44;100.00;101666.63;5071091;28;20059;-81
2021/11/20 02:39:51;;;;;;;0.20;0.20;;;;;;;9.46;100.00;101664.50;5071572;28;20416;-81
2021/11/20 02:42:23;;;;;;;0.20;0.20;;;;;;;9.56;100.00;101674.69;5068480;28;20048;-81
2021/11/20 02:45:21;;;;;;;0.22;0.22;;;;;;;9.45;100.00;101648.44;5066384;28;20051;-81
2021/11/20 02:47:52;;;;;;;0.20;0.20;;;;;;;9.49;100.00;101660.47;5066999;28;20059;-80
2021/11/20 02:50:34;;;;;;;0.20;0.20;;;;;;;9.56;100.00;101671.16;5067195;28;20424;-81
2021/11/20 02:53:03;;;;;;;0.30;0.30;;;;;;;9.51;100.00;101653.72;5054664;28;20520;-81
2021/11/20 02:55:32;;;;;;;0.20;0.20;;;;;;;9.53;100.00;101667.06;5066785;28;20044;-81
2021/11/20 02:58:02;;;;;;;0.22;0.22;;;;;;;9.55;100.00;101664.88;5067224;28;20052;-81
2021/11/20 03:00:31;;;;;;;0.30;0.30;;;;;;;9.44;100.00;101650.31;5069050;28;20504;-81
2021/11/20 03:03:01;;;;;;;0.30;0.30;;;;;;;9.46;100.00;101660.94;5066754;28;20044;-81
2021/11/20 03:05:30;;;;;;;0.20;0.20;;;;;;;9.54;100.00;101657.81;5068565;28;20059;-82
2021/11/20 03:08:03;;;;;;;0.20;0.20;;;;;;;9.42;100.00;101649.75;5066622;28;20049;-81
2021/11/20 03:10:37;;;;;;;0.30;0.30;;;;;;;9.46;100.00;101652.78;5066754;28;20049;-81
2021/11/20 03:13:05;;;;;;;0.20;0.20;;;;;;;9.46;100.00;101640.03;5066812;28;20052;-82
2021/11/20 03:15:41;;;;;;;0.20;0.20;;;;;;;9.42;100.00;101628.03;5067374;28;20052;-81
2021/11/20 03:18:11;;;;;;;0.20;0.20;;;;;;;9.46;100.00;101636.47;5068183;28;20063;-81
2021/11/20 03:20:42;;;;;;;0.30;0.30;;;;;;;9.41;100.00;101637.25;5062893;28;20049;-82
2021/11/20 03:23:17;;;;;;;0.20;0.20;;;;;;;9.36;100.00;101634.44;5064913;28;20407;-81
2021/11/20 03:25:50;;;;;;;0.30;0.30;;;;;;;9.41;100.00;101626.38;5067107;28;20051;-81
2021/11/20 03:28:20;;;;;;;0.20;0.20;;;;;;;9.33;100.00;101616.75;5064627;28;20726;-82
2021/11/20 03:30:55;;;;;;;0.20;0.20;;;;;;;9.44;100.00;101639.44;5070117;28;20058;-81
2021/11/20 03:33:25;;;;;;;0.20;0.20;;;;;;;9.42;100.00;101632.63;5070271;28;20497;-81
2021/11/20 03:35:55;;;;;;;0.30;0.30;;;;;;;9.46;100.00;101634.59;5069509;28;20040;-81
2021/11/20 03:38:28;;;;;;;0.30;0.30;;;;;;;9.49;100.00;101638.72;5063789;28;20040;-82
2021/11/20 03:41:05;;;;;;;0.20;0.20;;;;;;;9.42;100.00;101629.91;5069479;28;20063;-81
2021/11/20 03:43:34;;;;;;;0.30;0.30;;;;;;;9.50;100.00;101638.47;5065654;28;20067;-81
2021/11/20 03:46:04;;;;;;;0.20;0.20;;;;;;;9.47;100.00;101632.69;5068084;28;20045;-81
2021/11/20 03:48:39;;;;;;;0.20;0.20;;;;;;;9.52;100.00;101635.50;5066460;28;20036;-81
2021/11/20 03:51:08;;;;;;;0.10;0.10;;;;;;;9.39;100.00;101622.25;5055298;28;20523;-81
2021/11/20 03:53:37;;;;;;;0.20;0.20;;;;;;;9.42;100.00;101638.06;5065709;28;20656;-81
2021/11/20 03:56:11;;;;;;;0.20;0.20;;;;;;;9.42;100.00;101636.19;5055945;28;20045;-80
2021/11/20 03:58:45;;;;;;;0.20;0.20;;;;;;;9.43;100.00;101631.56;5049961;28;20052;-83
2021/11/20 04:01:16;;;;;;;0.20;0.20;;;;;;;9.37;100.00;101638.81;5051202;28;20504;-82
2021/11/20 04:03:51;;;;;;;0.20;0.20;;;;;;;9.43;100.00;101640.53;5065473;28;20064;-82
2021/11/20 04:06:20;;;;;;;0.20;0.20;;;;;;;9.32;100.00;101627.84;5065097;28;20045;-82
2021/11/20 04:08:59;;;;;;;0.30;0.30;;;;;;;9.36;100.00;101629.84;5060268;28;20044;-82
2021/11/20 04:11:35;;;;;;;0.20;0.20;;;;;;;9.33;100.00;101622.16;5072340;28;20039;-82
2021/11/20 04:14:05;;;;;;;0.25;0.25;;;;;;;9.36;100.00;101620.84;5065007;28;20052;-82
2021/11/20 04:16:35;;;;;;;0.20;0.20;;;;;;;9.42;100.00;101622.59;5065487;28;20053;-82
2021/11/20 04:19:07;;;;;;;0.20;0.20;;;;;;;9.41;100.00;101620.13;5068986;28;20657;-82
2021/11/20 04:21:41;;;;;;;0.20;0.20;;;;;;;9.54;100.00;101614.31;5065154;28;20060;-81
2021/11/20 04:24:17;;;;;;;0.30;0.30;;;;;;;9.44;100.00;101611.47;5069288;28;20048;-82
2021/11/20 04:27:16;;;;;;;0.20;0.20;;;;;;;9.42;100.00;101602.72;5070244;28;20063;-81
2021/11/20 04:30:22;;;;;;;0.22;0.22;;;;;;;9.35;100.00;101598.31;5002584;28;20045;-81
2021/11/20 04:32:55;;;;;;;0.20;0.20;;;;;;;9.40;100.00;101599.47;5051876;28;20059;-82
2021/11/20 04:35:30;;;;;;;0.20;0.20;;;;;;;9.40;100.00;101596.75;5066736;28;20052;-81
2021/11/20 04:37:59;;;;;;;0.20;0.20;;;;;;;9.47;100.00;101600.94;5069024;28;20048;-82
2021/11/20 04:40:27;;;;;;;0.20;0.20;;;;;;;9.29;100.00;101588.44;5066012;28;20041;-81
2021/11/20 04:42:58;;;;;;;0.20;0.20;;;;;;;9.35;100.00;101595.59;5070367;28;20404;-82
2021/11/20 04:45:31;;;;;;;0.20;0.20;;;;;;;9.31;100.00;101589.00;5065622;28;20055;-80
2021/11/20 04:48:00;;;;;;;0.20;0.20;;;;;;;9.33;100.00;101592.28;5065382;28;20041;-81
2021/11/20 04:50:44;;;;;;;0.20;0.20;;;;;;;9.29;100.00;101599.28;5070269;28;20045;-82
2021/11/20 04:53:13;;;;;;;0.20;0.20;;;;;;;9.33;100.00;101594.19;5058184;28;20052;-80
2021/11/20 04:55:43;;;;;;;0.20;0.20;;;;;;;9.24;100.00;101584.81;5063396;28;20048;-81
2021/11/20 04:58:14;;;;;;;0.22;0.22;;;;;;;9.21;100.00;101588.03;5064080;28;20048;-81
2021/11/20 05:00:51;;;;;;;0.20;0.20;;;;;;;9.20;100.00;101581.78;5069349;28;20056;-81
2021/11/20 05:03:26;;;;;;;0.30;0.30;;;;;;;9.13;100.00;101583.84;5068033;28;20519;-81
2021/11/20 05:05:58;;;;;;;0.20;0.20;;;;;;;9.13;100.00;101573.00;5069554;28;20052;-81
2021/11/20 05:08:28;;;;;;;0.30;0.30;;;;;;;9.04;100.00;101580.72;5062962;28;20515;-81
2021/11/20 05:11:05;;;;;;;0.30;0.30;;;;;;;8.90;100.00;101576.69;5068964;28;20048;-81
2021/11/20 05:13:44;;;;;;;0.30;0.30;;;;;;;8.91;100.00;101583.75;5073967;28;20068;-81
2021/11/20 05:16:14;;;;;;;0.20;0.20;;;;;;;8.90;100.00;101584.84;5068973;28;20049;-81
2021/11/20 05:18:47;;;;;;;0.20;0.20;;;;;;;8.95;100.00;101579.47;5070480;28;20044;-82
2021/11/20 05:21:32;;;;;;;0.20;0.20;;;;;;;8.86;100.00;101573.63;5068868;28;20056;-81
2021/11/20 05:24:06;;;;;;;0.20;0.20;;;;;;;8.89;100.00;101575.84;5072635;28;20063;-80
2021/11/20 05:26:39;;;;;;;0.20;0.20;;;;;;;9.07;100.00;101592.97;5071555;28;20048;-81
2021/11/20 05:29:21;;;;;;;0.20;0.20;;;;;;;9.09;100.00;101574.56;5066756;28;20049;-81
2021/11/20 05:31:56;;;;;;;0.20;0.20;;;;;;;9.13;100.00;101573.00;5069978;28;20428;-81
2021/11/20 05:34:35;;;;;;;0.30;0.30;;;;;;;9.14;100.00;101567.31;5064774;28;20396;-81
2021/11/20 05:37:10;;;;;;;0.30;0.30;;;;;;;9.23;100.00;101586.72;5068751;28;20075;-81
2021/11/20 05:39:43;;;;;;;0.25;0.25;;;;;;;9.29;100.00;101574.03;5053725;28;20041;-81
2021/11/20 05:42:17;;;;;;;0.20;0.20;;;;;;;9.26;100.00;101569.91;5067921;28;20052;-81
2021/11/20 05:44:49;;;;;;;0.20;0.20;;;;;;;9.31;100.00;101561.84;5068645;28;20048;-81
2021/11/20 05:47:22;;;;;;;0.22;0.22;;;;;;;9.29;100.00;101555.81;5072164;28;20059;-80
2021/11/20 05:49:50;;;;;;;0.22;0.22;;;;;;;9.20;100.00;101541.06;5072199;28;20059;-81
2021/11/20 05:52:22;;;;;;;0.22;0.22;;;;;;;9.33;100.00;101553.44;5069774;28;20044;-81
2021/11/20 05:54:50;;;;;;;0.20;0.20;;;;;;;9.30;100.00;101557.47;5070081;28;20379;-81
2021/11/20 05:57:24;;;;;;;0.20;0.20;;;;;;;9.32;100.00;101547.19;5070177;28;20079;-81
2021/11/20 06:00:10;;;;;;;0.30;0.30;;;;;;;9.36;100.00;101533.91;5064536;28;20067;-81
2021/11/20 06:02:58;;;;;;;0.20;0.20;;;;;;;9.32;100.00;101530.91;5068582;28;20047;-80
2021/11/20 06:05:42;;;;;;;0.20;0.20;;;;;;;9.32;100.00;101530.91;5070426;28;20048;-80
2021/11/20 06:08:20;;;;;;;0.22;0.22;;;;;;;9.29;100.00;101536.81;5066084;28;20505;-81
2021/11/20 06:10:57;;;;;;;0.30;0.30;;;;;;;9.25;100.00;101546.53;5053188;28;20053;-81
2021/11/20 06:13:27;;;;;;;0.20;0.20;;;;;;;9.16;100.00;101534.47;5067893;28;20048;-81
2021/11/20 06:16:01;;;;;;;0.25;0.25;;;;;;;9.28;100.00;101545.22;5066879;28;20044;-81
2021/11/20 06:18:30;;;;;;;0.20;0.20;;;;;;;9.28;100.00;101539.78;5053861;28;20299;-81
2021/11/20 06:20:59;;;;;;;0.20;0.20;;;;;;;9.28;100.00;101539.78;5072605;28;20052;-81
2021/11/20 06:23:38;;;;;;;0.20;0.20;;;;;;;9.31;100.00;101539.31;5072686;28;20057;-80
2021/11/20 06:26:11;;;;;;;0.30;0.30;;;;;;;9.29;100.00;101544.16;5073110;28;20076;-81
2021/11/20 06:28:40;;;;;;;0.28;0.28;;;;;;;9.24;100.00;101534.03;5072001;28;20075;-81
2021/11/20 06:31:17;;;;;;;0.20;0.20;;;;;;;9.36;100.00;101550.22;5069109;28;20048;-82
2021/11/20 06:33:52;;;;;;;0.20;0.20;;;;;;;9.09;100.00;101514.81;5071298;28;20049;-82
2021/11/20 06:36:44;;;;;;;0.30;0.30;;;;;;;9.34;100.00;101550.47;5068184;28;20049;-81
2021/11/20 06:39:24;;;;;;;0.30;0.30;;;;;;;9.40;100.00;101548.66;5068775;28;20060;-81
2021/11/20 06:42:03;;;;;;;0.30;0.30;;;;;;;9.37;100.00;101551.88;5055637;28;20048;-81
2021/11/20 06:44:36;;;;;;;0.20;0.20;;;;;;;9.41;100.00;101563.06;5068106;28;20051;-82
2021/11/20 06:47:10;;;;;;;0.25;0.25;;;;;;;9.39;100.00;101551.63;5067779;28;20049;-81
2021/11/20 06:49:40;;;;;;;0.20;0.20;;;;;;;9.35;100.00;101552.13;5070654;28;20044;-81
2021/11/20 06:52:09;;;;;;;0.20;0.20;;;;;;;9.40;100.00;101559.50;5065338;28;20397;-81
2021/11/20 06:54:57;;;;;;;0.20;0.20;;;;;;;9.44;100.00;101555.22;5065985;28;20138;-81
2021/11/20 07:00:44;;;;;;;0.20;0.20;;;;;;;9.48;100.00;101552.84;5068520;28;20057;-80
2021/11/20 07:03:22;;;;;;;0.30;0.30;;;;;;;9.39;100.00;101547.03;5049951;28;20067;-81
2021/11/20 07:06:05;;;;;;;0.20;0.20;;;;;;;9.33;100.00;101548.00;5075031;28;20079;-81
2021/11/20 07:08:42;;;;;;;0.20;0.20;;;;;;;9.39;100.00;101536.16;5066837;28;20044;-80
2021/11/20 07:11:21;;;;;;;0.28;0.28;;;;;;;9.50;100.00;101551.53;5065840;28;20409;-80
2021/11/20 07:13:55;;;;;;;0.20;0.20;;;;;;;9.52;100.00;101556.69;5071516;28;20412;-80
2021/11/20 07:16:26;;;;;;;0.20;0.20;;;;;;;9.30;100.00;101526.78;5066622;28;20055;-80
2021/11/20 07:19:00;;;;;;;0.20;0.20;;;;;;;9.49;100.00;101546.34;5062798;28;20052;-80
2021/11/20 07:21:53;;;;;;;0.20;0.20;;;;;;;9.32;100.00;101521.91;5054136;28;20067;-79
2021/11/20 07:24:38;;;;;;;0.20;0.20;;;;;;;9.43;100.00;101537.31;5061300;28;20052;-81
2021/11/20 07:27:14;;;;;;;0.30;0.30;;;;;;;9.35;100.00;101521.44;5070101;28;20295;-81
2021/11/20 07:29:48;;;;;;;0.20;0.20;;;;;;;9.33;100.00;101505.34;5065753;28;20408;-80
2021/11/20 07:32:28;;;;;;;0.30;0.30;;;;;;;9.44;100.00;101519.09;5068493;28;20047;-81
2021/11/20 07:34:58;;;;;;;0.28;0.28;;;;;;;9.51;100.00;101536.88;5060493;28;20302;-80
2021/11/20 07:37:26;;;;;;;0.30;0.30;;;;;;;9.52;100.00;101530.34;5069971;28;20045;-79
2021/11/20 07:40:02;;;;;;;0.28;0.28;;;;;;;9.56;100.00;101525.22;5088099;28;20143;-81
2021/11/20 07:42:43;;;;;;;0.20;0.20;;;;;;;9.57;100.00;101532.31;5090277;28;20407;-81
2021/11/20 07:45:38;;;;;;;0.20;0.20;;;;;;;9.40;100.00;101505.19;5073499;28;20055;-81
2021/11/20 07:48:11;;;;;;;0.25;0.25;;;;;;;9.31;100.00;101482.25;5067060;28;20041;-81
2021/11/20 07:50:49;;;;;;;0.20;0.20;;;;;;;9.57;100.00;101521.44;5051569;28;20064;-80
2021/11/20 07:53:44;;;;;;;0.30;0.30;;;;;;;9.54;100.00;101511.06;5057973;28;20049;-80
2021/11/20 07:56:19;;;;;;;0.20;0.20;;;;;;;9.33;100.00;101477.38;5068875;28;20524;-80
2021/11/20 07:58:57;;;;;;;0.20;0.20;;;;;;;9.47;100.00;101505.84;5067406;28;20052;-81
2021/11/20 08:01:27;;;;;;;0.20;0.20;;;;;;;9.60;100.00;101517.38;5063564;28;20060;-80
2021/11/20 08:04:03;;;;;;;0.20;0.20;;;;;;;9.66;100.00;101517.19;5062040;28;20389;-81
2021/11/20 08:06:47;;;;;;;0.20;0.20;;;;;;;9.58;100.00;101505.97;5074384;28;20381;-82
2021/11/20 08:09:34;;;;;;;0.30;0.30;;;;;;;9.56;100.00;101502.69;5066966;28;20037;-82
2021/11/20 08:12:16;;;;;;;0.20;0.20;;;;;;;9.62;100.00;101504.38;5066742;28;20520;-81
2021/11/20 08:15:06;;;;;;;0.20;0.20;;;;;;;9.63;100.00;101506.03;5065497;28;20542;-81
2021/11/20 08:18:05;;;;;;;0.20;0.20;;;;;;;9.58;100.00;101498.63;5050001;28;20049;-80
2021/11/20 08:20:50;;;;;;;0.30;0.30;;;;;;;9.56;100.00;101489.91;5065366;28;20362;-81
2021/11/20 08:23:42;;;;;;;0.20;0.20;;;;;;;9.63;100.00;101500.59;5063008;28;20056;-80
2021/11/20 08:26:14;;;;;;;0.20;0.20;;;;;;;9.51;100.00;101470.81;5069069;28;20507;-80
2021/11/20 08:28:50;;;;;;;0.20;0.20;;;;;;;9.62;100.00;101496.22;5067046;28;20052;-81
2021/11/20 08:31:29;;;;;;;0.30;0.30;;;;;;;9.48;100.00;101476.75;5066655;28;20049;-80
2021/11/20 08:34:16;;;;;;;0.30;0.30;;;;;;;9.47;100.00;101475.97;5063685;28;20045;-81
2021/11/20 08:37:11;;;;;;;0.30;0.30;;;;;;;9.63;100.00;101485.09;5061876;28;20048;-80
2021/11/20 08:39:58;;;;;;;0.20;0.20;;;;;;;9.71;100.00;101489.28;5056357;28;20501;-80
2021/11/20 08:42:32;;;;;;;0.28;0.28;;;;;;;9.57;100.00;101477.97;5063612;28;20044;-80
2021/11/20 08:45:12;;;;;;;0.30;0.30;;;;;;;9.67;100.00;101485.44;5068141;28;20391;-80
2021/11/20 08:47:53;;;;;;;0.20;0.20;;;;;;;9.76;100.00;101494.75;5063498;28;20045;-81
2021/11/20 08:50:31;;;;;;;0.20;0.20;;;;;;;9.68;100.00;101477.00;5063548;28;20580;-82
2021/11/20 08:53:06;;;;;;;0.20;0.20;;;;;;;9.79;100.00;101485.28;5059564;28;20040;-80
2021/11/20 08:55:45;;;;;;;0.20;0.20;;;;;;;9.74;100.00;101471.66;5062207;28;20059;-79
2021/11/20 08:58:41;;;;;;;0.20;0.20;;;;;;;9.67;100.00;101490.84;5060597;28;20509;-78
2021/11/20 09:01:20;;;;;;;0.20;0.20;;;;;;;9.59;100.00;101467.66;5062386;28;20055;-79
2021/11/20 09:04:25;;;;;;;0.20;0.20;;;;;;;9.53;100.00;101464.06;5059099;28;20061;-78
2021/11/20 09:07:09;;;;;;;0.30;0.30;;;;;;;9.68;100.00;101489.75;5062402;28;20051;-80
2021/11/20 09:09:55;;;;;;;0.20;0.20;;;;;;;9.65;100.00;101488.41;5059633;28;20048;-79
2021/11/20 09:12:27;;;;;;;0.28;0.28;;;;;;;9.64;100.00;101477.75;5060230;28;20055;-79
2021/11/20 09:15:00;;;;;;;0.28;0.28;;;;;;;9.69;100.00;101472.38;5063567;28;20048;-78
2021/11/20 09:17:41;;;;;;;0.20;0.20;;;;;;;9.72;100.00;101461.00;5061195;28;20049;-79
2021/11/20 09:20:29;;;;;;;0.20;0.20;;;;;;;9.84;100.00;101469.03;5045915;28;20046;-80
2021/11/20 09:23:02;;;;;;;0.20;0.20;;;;;;;9.88;100.00;101467.44;5061653;28;20056;-80
2021/11/20 09:26:09;;;;;;;0.30;0.30;;;;;;;9.97;100.00;101478.66;5051626;28;20052;-79
2021/11/20 09:28:43;;;;;;;0.30;0.30;;;;;;;9.74;100.00;101455.34;5060759;28;20044;-78
2021/11/20 09:31:14;;;;;;;0.22;0.22;;;;;;;9.74;100.00;101477.06;5062162;28;20053;-79
2021/11/20 09:33:45;;;;;;;0.10;0.10;;;;;;;9.65;100.00;101458.50;5062283;28;20087;-77
2021/11/20 09:36:23;;;;;;;0.30;0.30;;;;;;;9.60;100.00;101444.00;5064849;28;20071;-78
2021/11/20 09:39:15;;;;;;;0.20;0.20;;;;;;;9.58;100.00;101449.69;5053988;28;20049;-79
2021/11/20 09:42:03;;;;;;;0.25;0.25;;;;;;;9.72;100.00;101476.50;5065545;28;20060;-79
2021/11/20 09:44:45;;;;;;;0.20;0.20;;;;;;;9.64;100.00;101437.81;5070351;28;20057;-79
2021/11/20 09:47:19;;;;;;;0.22;0.22;;;;;;;9.60;100.00;101438.56;5069325;28;20488;-80
2021/11/20 09:49:53;;;;;;;0.20;0.20;;;;;;;9.85;100.00;101457.06;5066105;28;20059;-79
2021/11/20 09:52:24;;;;;;;0.20;0.20;;;;;;;9.78;100.00;101457.28;5063208;28;20401;-79
2021/11/20 09:54:53;;;;;;;0.30;0.30;;;;;;;9.69;100.00;101442.50;5075061;28;20070;-80
2021/11/20 09:57:30;;;;;;;0.30;0.30;;;;;;;9.60;100.00;101420.38;5071497;28;20036;-80
2021/11/20 10:00:15;;;;;;;0.22;0.22;;;;;;;9.73;100.00;101445.53;5072849;28;20056;-79
2021/11/20 10:02:49;;;;;;;0.20;0.20;;;;;;;10.03;100.00;101445.03;5067999;28;20048;-79
2021/11/20 10:05:21;;;;;;;0.20;0.20;;;;;;;9.88;100.00;101416.59;5063795;28;20051;-80
2021/11/20 10:08:05;;;;;;;0.20;0.20;;;;;;;10.04;100.00;101446.66;5070897;28;20044;-79
2021/11/20 10:10:37;;;;;;;0.20;0.20;;;;;;;9.93;100.00;101426.72;5067886;28;20402;-79
2021/11/20 10:13:15;;;;;;;0.20;0.20;;;;;;;9.95;100.00;101423.72;5070829;28;20057;-78
2021/11/20 10:15:58;;;;;;;0.30;0.30;;;;;;;9.93;100.00;101410.41;5070956;28;20048;-80
2021/11/20 10:18:35;;;;;;;0.22;0.22;;;;;;;9.97;100.00;101411.53;5070248;28;20488;-79
2021/11/20 10:21:18;;;;;;;0.30;0.30;;;;;;;9.96;100.00;101411.78;5067705;28;20056;-79
2021/11/20 10:23:55;;;;;;;0.22;0.22;;;;;;;10.04;100.00;101412.13;5071754;28;20049;-78
2021/11/20 10:26:56;;;;;;;0.20;0.20;;;;;;;10.16;100.00;101427.44;5069597;28;20059;-79
2021/11/20 10:29:59;;;;;;;0.20;0.20;;;;;;;10.16;100.00;101428.28;5068075;28;20048;-79
2021/11/20 10:32:37;;;;;;;0.20;0.20;;;;;;;10.04;100.00;101401.25;5064601;28;20044;-80
2021/11/20 10:35:17;;;;;;;0.20;0.20;;;;;;;10.24;100.00;101421.53;5062407;28;20389;-79
2021/11/20 10:37:54;;;;;;;0.30;0.30;;;;;;;10.00;100.00;101396.59;5069284;28;20049;-80
2021/11/20 10:40:36;;;;;;;0.20;0.20;;;;;;;10.11;100.00;101392.03;5066638;28;20476;-80
2021/11/20 10:43:08;;;;;;;0.25;0.25;;;;;;;10.08;100.00;101387.13;5067695;28;20071;-80
2021/11/20 10:45:47;;;;;;;0.20;0.20;;;;;;;10.18;100.00;101401.63;5066511;28;20404;-80
2021/11/20 10:48:37;;;;;;;0.20;0.20;;;;;;;10.33;100.00;101400.94;5047251;28;20060;-79
2021/11/20 10:51:30;;;;;;;0.20;0.20;;;;;;;10.19;100.00;101386.13;5068515;28;20053;-80
2021/11/20 10:54:33;;;;;;;0.20;0.20;;;;;;;10.10;100.00;101388.50;5068616;28;20045;-79
2021/11/20 10:57:13;;;;;;;0.20;0.20;;;;;;;10.26;100.00;101405.78;5064051;28;20049;-79
2021/11/20 11:00:00;;;;;;;0.20;0.20;;;;;;;10.00;100.00;101351.19;5063176;28;20052;-79
2021/11/20 11:02:52;;;;;;;0.20;0.20;;;;;;;10.07;100.00;101369.16;5067396;28;20052;-80
2021/11/20 11:05:53;;;;;;;0.20;0.20;;;;;;;10.27;100.00;101403.88;5071280;28;20625;-79
2021/11/20 11:08:32;;;;;;;0.20;0.20;;;;;;;10.21;100.00;101392.94;5069269;28;20044;-80
2021/11/20 11:11:12;;;;;;;0.20;0.20;;;;;;;10.07;100.00;101358.28;5068477;28;20412;-79
2021/11/20 11:14:14;;;;;;;0.22;0.22;;;;;;;10.18;100.00;101354.59;5069746;28;20048;-79
2021/11/20 11:16:50;;;;;;;0.20;0.20;;;;;;;10.14;100.00;101340.69;5065303;28;20048;-78
2021/11/20 11:19:42;;;;;;;0.20;0.20;;;;;;;10.23;100.00;101351.06;5068810;28;20424;-79
2021/11/20 11:22:25;;;;;;;0.20;0.20;;;;;;;10.26;100.00;101345.94;5064747;28;20604;-80
2021/11/20 11:25:28;;;;;;;0.20;0.20;;;;;;;10.26;100.00;101345.94;5064936;28;20059;-79
2021/11/20 11:28:36;;;;;;;0.20;0.20;;;;;;;10.18;100.00;101341.78;5063393;28;20060;-78
2021/11/20 11:31:25;;;;;;;0.20;0.20;;;;;;;10.23;100.00;101343.72;5059401;28;20474;-79
2021/11/20 11:33:58;;;;;;;0.20;0.20;;;;;;;10.19;100.00;101338.00;5060106;28;20044;-78
2021/11/20 11:36:35;;;;;;;0.20;0.20;;;;;;;10.24;100.00;101341.84;5061177;28;20048;-79
2021/11/20 11:39:24;;;;;;;0.30;0.30;;;;;;;10.22;100.00;101331.22;5057311;28;20041;-79
2021/11/20 11:42:05;;;;;;;0.20;0.20;;;;;;;10.18;100.00;101327.38;5055559;28;20501;-80
2021/11/20 11:45:04;;;;;;;0.20;0.20;;;;;;;10.20;100.00;101317.88;5060245;28;20053;-78
2021/11/20 11:47:50;;;;;;;0.20;0.20;;;;;;;10.02;100.00;101305.50;5063041;28;20048;-79
2021/11/20 11:50:33;;;;;;;0.20;0.20;;;;;;;10.08;100.00;101321.84;5059343;28;20041;-79
2021/11/20 11:53:29;;;;;;;0.20;0.20;;;;;;;9.98;100.00;101304.38;5063860;28;20048;-78
2021/11/20 11:56:05;;;;;;;0.22;0.22;;;;;;;10.02;100.00;101300.06;5060995;28;20056;-79
2021/11/20 11:58:53;;;;;;;0.20;0.20;;;;;;;9.98;100.00;101295.41;5059874;28;20535;-79
2021/11/20 12:01:41;;;;;;;0.30;0.30;;;;;;;9.99;100.00;101305.22;5057442;28;20839;-79
2021/11/20 12:04:19;;;;;;;0.20;0.20;;;;;;;9.97;100.00;101300.03;5061001;28;20059;-79
2021/11/20 12:07:08;;;;;;;0.20;0.20;;;;;;;10.07;100.00;101291.13;5057025;28;20524;-79
2021/11/20 12:09:47;;;;;;;0.20;0.20;;;;;;;10.04;100.00;101295.19;5063499;28;20036;-78
2021/11/20 12:12:29;;;;;;;0.20;0.20;;;;;;;10.02;100.00;101286.47;5063763;28;20068;-79
2021/11/20 12:15:21;;;;;;;0.20;0.20;;;;;;;9.97;100.00;101269.28;5062791;28;20048;-78
2021/11/20 12:18:00;;;;;;;0.20;0.20;;;;;;;10.04;100.00;101270.72;5059756;28;20048;-79